Time;durP1;ratioP1;P1;durP2;ratioP2;P2;SDS_P1;SDS_P2;PMS_P1;PMS_P2;Temp;Humidity;BMP_temperature;BMP_pressure;BME280_temperature;BME280_humidity;BME280_pressure;Samples;Min_cycle;Max_cycle;Signal;HPM_P1;HPM_P2
2022/08/12 00:43:03;;;;;;;3.38;3.08;;;;;;;;;;5037245;28;20047;-77
2022/08/12 00:46:35;;;;;;;6.40;3.08;;;;;;;;;;5037531;28;20045;-77
2022/08/12 00:48:56;;;;;;;5.95;2.65;;;;;;;;;;5034538;28;20037;-77
2022/08/12 00:54:57;;;;;;;3.10;2.70;;;;;;;;;;5037368;28;20033;-77
2022/08/12 00:57:47;;;;;;;4.47;2.83;;;;;;;;;;5037245;28;20049;-78
2022/08/12 01:00:34;;;;;;;5.25;2.92;;;;;;;;;;5037150;28;20037;-78
2022/08/12 01:03:20;;;;;;;6.22;3.05;;;;;;;;;;5037113;28;20041;-77
2022/08/12 01:12:18;;;;;;;6.90;3.40;;;;;;;;;;5037028;28;20045;-77
2022/08/12 01:15:04;;;;;;;6.75;3.88;;;;;;;;;;5022067;28;20045;-77
2022/08/12 01:17:50;;;;;;;7.63;3.10;;;;;;;;;;5043590;28;20045;-77
2022/08/12 01:20:46;;;;;;;5.28;3.28;;;;;;;;;;5037020;28;20037;-77
2022/08/12 01:23:40;;;;;;;4.45;3.10;;;;;;;;;;5037364;28;20049;-77
2022/08/12 01:26:26;;;;;;;;;;;;;;;;;;5037856;28;20045;-78
2022/08/12 01:29:17;;;;;;;6.05;3.25;;;;;;;;;;5037582;28;19917;-77
2022/08/12 01:32:07;;;;;;;4.53;3.00;;;;;;;;;;5037415;28;20045;-78
2022/08/12 01:35:02;;;;;;;4.45;3.05;;;;;;;;;;5037004;28;20479;-78
2022/08/12 01:38:00;;;;;;;3.80;2.88;;;;;;;;;;5037535;28;20046;-77
2022/08/12 01:40:48;;;;;;;4.82;3.40;;;;;;;;;;5028401;28;20049;-78
2022/08/12 01:43:34;;;;;;;4.25;2.83;;;;;;;;;;5044101;28;20371;-78
2022/08/12 01:46:28;;;;;;;4.47;2.70;;;;;;;;;;5036226;28;20049;-78
2022/08/12 01:49:43;;;;;;;3.95;2.88;;;;;;;;;;5035611;28;20041;-77
2022/08/12 01:52:55;;;;;;;4.78;2.75;;;;;;;;;;5010381;28;20041;-78
2022/08/12 01:55:44;;;;;;;4.35;3.30;;;;;;;;;;5042516;28;20479;-78
2022/08/12 02:01:40;;;;;;;3.90;2.75;;;;;;;;;;5042249;28;20414;-78
2022/08/12 02:11:22;;;;;;;2.90;2.53;;;;;;;;;;5040981;28;20443;-77
2022/08/12 02:14:34;;;;;;;3.63;2.92;;;;;;;;;;5049940;28;20041;-78
2022/08/12 02:17:44;;;;;;;4.60;2.70;;;;;;;;;;5041510;28;20057;-77
2022/08/12 02:20:52;;;;;;;4.10;3.10;;;;;;;;;;5045752;28;20041;-77
2022/08/12 02:23:39;;;;;;;3.55;2.80;;;;;;;;;;5024764;28;20037;-77
2022/08/12 02:26:29;;;;;;;5.80;3.08;;;;;;;;;;5024198;28;20051;-77
2022/08/12 02:29:15;;;;;;;7.35;2.78;;;;;;;;;;5038884;28;20038;-78
2022/08/12 02:32:03;;;;;;;3.30;2.78;;;;;;;;;;5045037;28;20041;-77
2022/08/12 02:34:49;;;;;;;4.93;2.55;;;;;;;;;;5038819;28;20045;-77
2022/08/12 02:37:39;;;;;;;10.82;3.08;;;;;;;;;;5037549;28;20049;-77
2022/08/12 02:40:27;;;;;;;4.90;2.78;;;;;;;;;;5036701;28;20049;-78
2022/08/12 02:43:48;;;;;;;4.43;3.35;;;;;;;;;;5041806;28;20053;-77
2022/08/12 02:46:35;;;;;;;3.40;2.70;;;;;;;;;;5040320;28;20049;-79
2022/08/12 02:49:30;;;;;;;4.10;3.08;;;;;;;;;;5034076;28;20045;-77
2022/08/12 02:52:16;;;;;;;4.65;3.25;;;;;;;;;;5034999;28;20471;-77
2022/08/12 02:55:17;;;;;;;4.18;3.30;;;;;;;;;;5034628;28;20037;-77
2022/08/12 02:58:08;;;;;;;9.80;4.28;;;;;;;;;;5026318;28;20038;-77
2022/08/12 03:00:54;;;;;;;9.93;4.80;;;;;;;;;;5036450;28;20502;-77
2022/08/12 03:03:40;;;;;;;15.43;5.30;;;;;;;;;;5037056;28;20057;-77
2022/08/12 03:06:30;;;;;;;10.40;5.28;;;;;;;;;;5038367;28;20045;-77
2022/08/12 03:09:18;;;;;;;10.45;5.18;;;;;;;;;;5037986;28;20045;-77
2022/08/12 03:12:08;;;;;;;9.60;5.15;;;;;;;;;;4999297;28;20042;-77
2022/08/12 03:14:54;;;;;;;11.65;5.63;;;;;;;;;;4999233;28;20416;-79
2022/08/12 03:18:02;;;;;;;10.93;5.78;;;;;;;;;;4998963;28;20046;-76
2022/08/12 03:20:48;;;;;;;11.07;6.07;;;;;;;;;;4999280;28;20057;-78
2022/08/12 03:23:35;;;;;;;14.02;5.80;;;;;;;;;;4996053;28;20046;-77
2022/08/12 03:26:24;;;;;;;14.13;7.18;;;;;;;;;;4994778;28;20042;-77
2022/08/12 03:29:11;;;;;;;14.75;7.60;;;;;;;;;;5001255;28;20499;-77
2022/08/12 03:32:01;;;;;;;15.07;6.72;;;;;;;;;;4986760;28;20046;-77
2022/08/12 03:34:49;;;;;;;12.73;6.40;;;;;;;;;;4994751;28;20054;-77
2022/08/12 03:37:36;;;;;;;11.20;5.93;;;;;;;;;;4994540;28;20042;-77
2022/08/12 04:02:07;;;;;;;9.68;5.13;;;;;;;;;;5000612;28;20149;-77
2022/08/12 04:04:52;;;;;;;10.77;5.03;;;;;;;;;;4995640;28;20046;-77
2022/08/12 04:07:38;;;;;;;10.85;4.75;;;;;;;;;;4994585;28;20042;-77
2022/08/12 04:13:14;;;;;;;10.73;5.22;;;;;;;;;;5001621;28;20049;-77
2022/08/12 04:13:33;;;;;;;4.97;4.20;;;;;;;;;;5020033;28;20042;-77
2022/08/12 04:16:19;;;;;;;7.57;4.13;;;;;;;;;;5027042;28;20045;-78
2022/08/12 04:19:05;;;;;;;4.03;3.00;;;;;;;;;;5020533;28;20042;-77
2022/08/12 04:21:51;;;;;;;5.32;3.30;;;;;;;;;;5020317;28;20046;-78
2022/08/12 04:24:39;;;;;;;5.05;3.50;;;;;;;;;;5020675;28;20487;-78
2022/08/12 04:27:28;;;;;;;5.43;2.88;;;;;;;;;;5031459;28;20054;-79
2022/08/12 04:30:13;;;;;;;6.07;3.10;;;;;;;;;;5033404;28;20046;-78
2022/08/12 04:32:59;;;;;;;7.60;3.20;;;;;;;;;;5012253;28;20045;-77
2022/08/12 04:35:45;;;;;;;8.90;3.65;;;;;;;;;;5026842;28;20045;-78
2022/08/12 04:38:32;;;;;;;6.38;4.13;;;;;;;;;;5020910;28;20049;-77
2022/08/12 04:41:19;;;;;;;9.85;4.13;;;;;;;;;;5020363;28;20395;-77
2022/08/12 04:44:06;;;;;;;5.68;4.22;;;;;;;;;;5020394;28;20049;-77
2022/08/12 04:46:53;;;;;;;5.30;3.55;;;;;;;;;;5020173;28;20042;-77
2022/08/12 04:49:39;;;;;;;7.57;3.72;;;;;;;;;;5019967;28;20041;-77
2022/08/12 04:52:25;;;;;;;8.27;4.28;;;;;;;;;;5020245;28;20046;-77
2022/08/12 04:55:15;;;;;;;9.95;4.15;;;;;;;;;;5019971;28;20042;-78
2022/08/12 04:58:01;;;;;;;13.77;5.07;;;;;;;;;;5026766;28;20045;-77
2022/08/12 05:00:46;;;;;;;8.25;5.10;;;;;;;;;;5019586;28;20391;-77
2022/08/12 05:03:34;;;;;;;12.32;5.25;;;;;;;;;;5019930;28;20046;-77
2022/08/12 05:06:18;;;;;;;15.40;5.43;;;;;;;;;;5031907;28;20046;-77
2022/08/12 05:09:05;;;;;;;13.85;5.72;;;;;;;;;;5030699;28;20053;-77
2022/08/12 05:11:50;;;;;;;12.10;5.68;;;;;;;;;;5024781;28;20554;-78
2022/08/12 05:14:39;;;;;;;14.30;5.72;;;;;;;;;;5032999;28;20039;-77
2022/08/12 05:17:25;;;;;;;9.43;5.95;;;;;;;;;;5024633;28;20046;-77
2022/08/12 05:20:11;;;;;;;11.52;5.88;;;;;;;;;;5025581;28;20042;-77
2022/08/12 05:23:08;;;;;;;16.27;6.65;;;;;;;;;;5024027;28;20042;-77
2022/08/12 05:25:55;;;;;;;8.45;5.22;;;;;;;;;;5028456;28;20037;-78
2022/08/12 05:28:40;;;;;;;20.02;6.47;;;;;;;;;;5028060;28;20507;-77
2022/08/12 05:31:26;;;;;;;18.90;6.30;;;;;;;;;;5022739;28;20046;-77
2022/08/12 05:34:13;;;;;;;16.98;6.00;;;;;;;;;;5023125;28;20483;-77
2022/08/12 05:36:58;;;;;;;14.70;5.82;;;;;;;;;;5022907;28;20042;-77
2022/08/12 05:39:44;;;;;;;12.15;6.30;;;;;;;;;;5029256;28;20050;-77
2022/08/12 05:42:30;;;;;;;15.40;5.93;;;;;;;;;;5021604;28;20475;-76
2022/08/12 05:45:16;;;;;;;9.95;5.25;;;;;;;;;;5022301;28;20045;-77
2022/08/12 05:48:01;;;;;;;10.45;5.10;;;;;;;;;;5022067;28;20046;-77
2022/08/12 05:50:47;;;;;;;8.48;5.32;;;;;;;;;;5022129;28;20484;-77
2022/08/12 05:53:33;;;;;;;11.30;5.68;;;;;;;;;;5022427;28;20046;-76
2022/08/12 05:56:20;;;;;;;11.18;5.43;;;;;;;;;;5020055;28;20046;-77
2022/08/12 05:59:06;;;;;;;16.05;5.38;;;;;;;;;;5023594;28;20050;-77
2022/08/12 06:01:57;;;;;;;10.35;5.50;;;;;;;;;;5020106;28;20046;-77
2022/08/12 06:04:42;;;;;;;11.45;4.80;;;;;;;;;;5020195;28;20046;-77
2022/08/12 06:07:27;;;;;;;11.23;5.00;;;;;;;;;;5020640;28;20399;-77
2022/08/12 06:10:15;;;;;;;11.43;4.57;;;;;;;;;;5019773;28;20042;-77
2022/08/12 06:13:02;;;;;;;12.57;5.18;;;;;;;;;;5027729;28;20046;-77
2022/08/12 06:15:48;;;;;;;9.13;4.97;;;;;;;;;;5021240;28;20050;-77
2022/08/12 06:18:38;;;;;;;8.80;4.57;;;;;;;;;;5020694;28;20045;-77
2022/08/12 06:21:23;;;;;;;9.15;4.53;;;;;;;;;;5020687;28;20045;-78
2022/08/12 06:24:13;;;;;;;10.20;4.50;;;;;;;;;;5019582;28;20046;-77
2022/08/12 06:26:59;;;;;;;11.30;4.50;;;;;;;;;;5019041;28;20046;-76
2022/08/12 06:29:44;;;;;;;10.10;4.75;;;;;;;;;;5018044;28;20042;-76
2022/08/12 06:32:30;;;;;;;6.68;3.85;;;;;;;;;;5021743;28;20145;-76
2022/08/12 06:35:16;;;;;;;9.00;4.30;;;;;;;;;;5022834;28;20046;-78
2022/08/12 06:38:02;;;;;;;5.10;2.95;;;;;;;;;;5022296;28;20049;-77
2022/08/12 06:43:56;;;;;;;3.35;2.50;;;;;;;;;;5018279;28;20484;-77
2022/08/12 06:46:42;;;;;;;4.65;3.53;;;;;;;;;;5021644;28;20050;-78
2022/08/12 06:49:34;;;;;;;7.80;3.47;;;;;;;;;;5014923;28;20037;-78
2022/08/12 06:52:23;;;;;;;18.35;9.52;;;;;;;;;;5016197;28;20050;-77
2022/08/12 06:55:16;;;;;;;8.63;4.30;;;;;;;;;;5015706;28;20042;-78
2022/08/12 06:58:04;;;;;;;5.53;3.75;;;;;;;;;;5015455;28;20455;-77
2022/08/12 07:00:50;;;;;;;7.97;4.10;;;;;;;;;;5015241;28;20037;-77
2022/08/12 07:03:36;;;;;;;5.10;3.75;;;;;;;;;;5015369;28;20050;-76
2022/08/12 07:06:24;;;;;;;7.18;3.72;;;;;;;;;;5021301;28;20042;-79
2022/08/12 07:09:09;;;;;;;5.43;3.70;;;;;;;;;;5014913;28;20050;-77
2022/08/12 07:11:55;;;;;;;3.63;3.20;;;;;;;;;;4994281;28;20484;-77
2022/08/12 07:14:40;;;;;;;11.88;3.22;;;;;;;;;;4995885;28;20046;-77
2022/08/12 07:17:35;;;;;;;9.65;3.38;;;;;;;;;;4995451;28;20054;-78
2022/08/12 07:20:21;;;;;;;;;;;;;;;;;;4996054;28;20046;-76
2022/08/12 07:23:06;;;;;;;5.43;2.40;;;;;;;;;;5001037;28;19917;-75
2022/08/12 07:25:52;;;;;;;4.78;2.42;;;;;;;;;;4994791;28;20050;-75
2022/08/12 07:28:40;;;;;;;11.55;2.72;;;;;;;;;;5001524;28;20050;-76
2022/08/12 07:31:26;;;;;;;5.32;3.10;;;;;;;;;;5001150;28;20046;-76
2022/08/12 07:34:11;;;;;;;5.68;2.53;;;;;;;;;;4994941;28;20043;-76
2022/08/12 07:36:59;;;;;;;4.78;2.78;;;;;;;;;;4994649;28;20055;-75
2022/08/12 07:39:44;;;;;;;5.05;2.08;;;;;;;;;;5001403;28;20046;-75
2022/08/12 07:42:29;;;;;;;3.65;2.30;;;;;;;;;;4994654;28;20034;-76
2022/08/12 07:45:16;;;;;;;6.18;2.65;;;;;;;;;;5001169;28;20054;-75
2022/08/12 07:48:01;;;;;;;10.32;2.65;;;;;;;;;;4993893;28;20042;-76
2022/08/12 07:50:47;;;;;;;3.53;2.40;;;;;;;;;;4994170;28;20058;-77
2022/08/12 07:53:34;;;;;;;3.25;2.08;;;;;;;;;;4994289;28;20038;-76
2022/08/12 07:56:19;;;;;;;4.80;2.40;;;;;;;;;;4994550;28;20042;-77
2022/08/12 07:59:07;;;;;;;4.32;2.58;;;;;;;;;;5000404;28;20058;-78
2022/08/12 08:01:54;;;;;;;6.32;2.45;;;;;;;;;;5000687;28;20050;-76
2022/08/12 08:04:59;;;;;;;9.85;2.88;;;;;;;;;;4994118;28;20043;-76
2022/08/12 08:07:44;;;;;;;13.00;3.22;;;;;;;;;;4994233;28;20360;-75
2022/08/12 08:10:30;;;;;;;5.35;2.53;;;;;;;;;;5002349;28;20054;-76
2022/08/12 08:13:16;;;;;;;3.70;2.08;;;;;;;;;;5020199;28;20054;-76
2022/08/12 08:16:04;;;;;;;2.72;2.05;;;;;;;;;;5013608;28;20045;-75
2022/08/12 08:18:52;;;;;;;38.38;6.18;;;;;;;;;;5013633;28;20046;-75
2022/08/12 08:21:37;;;;;;;22.27;14.63;;;;;;;;;;5019681;28;20037;-75
2022/08/12 08:24:26;;;;;;;5.45;3.97;;;;;;;;;;5020039;28;20053;-76
2022/08/12 08:27:12;;;;;;;5.30;2.35;;;;;;;;;;5013534;28;20076;-75
2022/08/12 08:29:57;;;;;;;1473.63;870.85;;;;;;;;;;5013492;28;20046;-75
2022/08/12 08:32:43;;;;;;;9.25;6.10;;;;;;;;;;5013479;28;20056;-77
2022/08/12 08:35:32;;;;;;;221.15;158.32;;;;;;;;;;5013940;28;20050;-77
2022/08/12 08:38:18;;;;;;;10.50;2.95;;;;;;;;;;5012385;28;20396;-76
2022/08/12 08:44:11;;;;;;;2.33;2.00;;;;;;;;;;5004096;28;20057;-76
2022/08/12 08:46:57;;;;;;;4.40;2.85;;;;;;;;;;5019952;28;20484;-75
2022/08/12 08:49:42;;;;;;;4.85;2.08;;;;;;;;;;5019457;28;20418;-76
2022/08/12 08:52:29;;;;;;;6.43;4.07;;;;;;;;;;5012989;28;20045;-78
2022/08/12 08:55:15;;;;;;;3.80;2.00;;;;;;;;;;5017609;28;20054;-78
2022/08/12 08:58:02;;;;;;;6.57;3.55;;;;;;;;;;5016905;28;20045;-76
2022/08/12 09:00:49;;;;;;;1.70;1.60;;;;;;;;;;5001432;28;20395;-74
2022/08/12 09:03:34;;;;;;;5.93;2.03;;;;;;;;;;5023397;28;20468;-76
2022/08/12 09:06:20;;;;;;;4.00;2.63;;;;;;;;;;5016680;28;20054;-78
2022/08/12 09:09:09;;;;;;;9.10;3.42;;;;;;;;;;5016881;28;20038;-76
2022/08/12 09:14:59;;;;;;;5.20;2.33;;;;;;;;;;5023453;28;20042;-76
2022/08/12 09:17:54;;;;;;;4.22;2.25;;;;;;;;;;5016739;28;20042;-76
2022/08/12 09:20:40;;;;;;;3.17;2.05;;;;;;;;;;5017074;28;20046;-75
2022/08/12 09:23:26;;;;;;;4.28;2.40;;;;;;;;;;5017191;28;20050;-76
2022/08/12 09:26:14;;;;;;;5.40;2.80;;;;;;;;;;5016997;28;20049;-75
2022/08/12 09:29:00;;;;;;;8.68;2.92;;;;;;;;;;5022992;28;20053;-75
2022/08/12 09:31:46;;;;;;;5.00;2.33;;;;;;;;;;5016766;28;20042;-76
2022/08/12 09:34:32;;;;;;;6.57;3.20;;;;;;;;;;5022855;28;20488;-74
2022/08/12 09:37:17;;;;;;;6.85;2.50;;;;;;;;;;5016532;28;20046;-77
2022/08/12 09:40:03;;;;;;;4.45;2.70;;;;;;;;;;5016474;28;20033;-75
2022/08/12 09:45:53;;;;;;;3.28;2.58;;;;;;;;;;5016391;28;20411;-77
2022/08/12 09:48:38;;;;;;;3.80;2.50;;;;;;;;;;5015962;28;20037;-77
2022/08/12 09:51:25;;;;;;;3.03;2.60;;;;;;;;;;5007861;28;20041;-77
2022/08/12 09:54:11;;;;;;;4.63;2.78;;;;;;;;;;5016044;28;20042;-74
2022/08/12 09:56:56;;;;;;;5.55;2.80;;;;;;;;;;5022686;28;20038;-78
2022/08/12 09:59:42;;;;;;;4.18;2.90;;;;;;;;;;5015497;28;20045;-75
2022/08/12 10:02:27;;;;;;;3.75;2.80;;;;;;;;;;5015710;28;20046;-75
2022/08/12 10:05:13;;;;;;;4.95;2.70;;;;;;;;;;5015644;28;20046;-75
2022/08/12 10:07:59;;;;;;;5.22;2.92;;;;;;;;;;5015725;28;20038;-75
2022/08/12 10:13:54;;;;;;;3.70;2.60;;;;;;;;;;5007673;28;20054;-77
2022/08/12 10:16:42;;;;;;;4.25;2.60;;;;;;;;;;5022380;28;20046;-74
2022/08/12 10:19:28;;;;;;;7.13;2.90;;;;;;;;;;5015537;28;20053;-77
2022/08/12 10:22:14;;;;;;;3.88;2.90;;;;;;;;;;5022045;28;20046;-76
2022/08/12 10:31:08;;;;;;;4.05;2.85;;;;;;;;;;5015838;28;20038;-75
2022/08/12 10:33:53;;;;;;;3.28;2.53;;;;;;;;;;5015395;28;20046;-78
2022/08/12 10:36:40;;;;;;;3.67;2.90;;;;;;;;;;5021878;28;20049;-77
2022/08/12 10:39:31;;;;;;;6.50;3.17;;;;;;;;;;5021445;28;20467;-77
2022/08/12 10:45:20;;;;;;;4.00;2.72;;;;;;;;;;5021102;28;20419;-75
2022/08/12 10:48:05;;;;;;;4.40;2.90;;;;;;;;;;5006936;28;20046;-76
2022/08/12 10:50:51;;;;;;;3.35;2.75;;;;;;;;;;5014775;28;20487;-76
2022/08/12 10:53:36;;;;;;;4.05;2.63;;;;;;;;;;5021395;28;20046;-78
2022/08/12 10:56:23;;;;;;;4.05;2.75;;;;;;;;;;5014555;28;20046;-77
2022/08/12 10:59:09;;;;;;;5.97;2.88;;;;;;;;;;5014961;28;20050;-76
2022/08/12 11:01:55;;;;;;;3.63;2.58;;;;;;;;;;5020924;28;20041;-76
2022/08/12 11:04:42;;;;;;;2.45;2.17;;;;;;;;;;5014828;28;20483;-77
2022/08/12 11:07:34;;;;;;;6.38;2.50;;;;;;;;;;5015248;28;20042;-74
2022/08/12 11:10:19;;;;;;;3.85;2.22;;;;;;;;;;5019162;28;20045;-75
2022/08/12 11:13:05;;;;;;;3.65;2.10;;;;;;;;;;5008967;28;20137;-76
2022/08/12 11:15:51;;;;;;;4.75;2.30;;;;;;;;;;5020962;28;20049;-75
2022/08/12 11:18:37;;;;;;;2.75;2.38;;;;;;;;;;5014759;28;20046;-75
2022/08/12 11:21:23;;;;;;;2.40;2.20;;;;;;;;;;5013877;28;20388;-75
2022/08/12 11:24:08;;;;;;;3.95;3.03;;;;;;;;;;5013964;28;20045;-77
2022/08/12 11:26:54;;;;;;;3.17;2.30;;;;;;;;;;5020539;28;20399;-77
2022/08/12 11:29:40;;;;;;;4.70;2.30;;;;;;;;;;5014322;28;20045;-78
2022/08/12 11:32:25;;;;;;;2.75;2.30;;;;;;;;;;5014840;28;20050;-77
2022/08/12 11:35:10;;;;;;;4.35;2.70;;;;;;;;;;5020688;28;20046;-78
2022/08/12 11:37:58;;;;;;;3.95;2.40;;;;;;;;;;5014482;28;20053;-76
2022/08/12 11:40:43;;;;;;;4.05;2.45;;;;;;;;;;5014379;28;20391;-76
2022/08/12 11:43:29;;;;;;;3.00;2.70;;;;;;;;;;5020470;28;20050;-76
2022/08/12 11:46:16;;;;;;;4.95;2.50;;;;;;;;;;5020619;28;20034;-77
2022/08/12 11:49:03;;;;;;;4.30;2.70;;;;;;;;;;5020418;28;20046;-75
2022/08/12 11:51:49;;;;;;;3.10;2.60;;;;;;;;;;5013510;28;20045;-77
2022/08/12 11:54:34;;;;;;;2.90;2.35;;;;;;;;;;5014319;28;20399;-76
2022/08/12 11:57:20;;;;;;;3.90;2.40;;;;;;;;;;5020134;28;20425;-78
2022/08/12 12:00:06;;;;;;;3.30;2.60;;;;;;;;;;5020758;28;20046;-75
2022/08/12 12:02:57;;;;;;;3.05;2.65;;;;;;;;;;5014030;28;20046;-77
2022/08/12 12:05:43;;;;;;;5.03;2.90;;;;;;;;;;5013792;28;20042;-75
2022/08/12 12:08:30;;;;;;;3.28;2.45;;;;;;;;;;5020037;28;20046;-76
2022/08/12 12:11:15;;;;;;;4.93;2.47;;;;;;;;;;5013322;28;20399;-78
2022/08/12 12:14:00;;;;;;;5.07;2.95;;;;;;;;;;5014073;28;20487;-75
2022/08/12 12:16:46;;;;;;;3.63;2.58;;;;;;;;;;5013602;28;20050;-78
2022/08/12 12:19:31;;;;;;;2.90;2.47;;;;;;;;;;5013634;28;20053;-76
2022/08/12 12:22:17;;;;;;;3.40;2.42;;;;;;;;;;5013584;28;20042;-74
2022/08/12 12:25:04;;;;;;;2.92;2.63;;;;;;;;;;5019728;28;20049;-75
2022/08/12 12:27:52;;;;;;;3.28;2.38;;;;;;;;;;5013621;28;20042;-78
2022/08/12 12:30:39;;;;;;;2.63;2.10;;;;;;;;;;5013492;28;20372;-78
2022/08/12 12:33:23;;;;;;;2.60;2.10;;;;;;;;;;5021824;28;20487;-76
2022/08/12 12:36:09;;;;;;;2.50;2.30;;;;;;;;;;5017500;28;20050;-75
2022/08/12 12:38:54;;;;;;;3.65;2.30;;;;;;;;;;5017427;28;20046;-78
2022/08/12 12:41:40;;;;;;;5.15;2.30;;;;;;;;;;5017172;28;20045;-76
2022/08/12 12:44:26;;;;;;;3.15;2.50;;;;;;;;;;5017043;28;20041;-76
2022/08/12 12:47:11;;;;;;;5.60;2.95;;;;;;;;;;5017422;28;20058;-78
2022/08/12 12:49:57;;;;;;;6.90;2.47;;;;;;;;;;5017612;28;20483;-78
2022/08/12 12:52:43;;;;;;;4.78;2.55;;;;;;;;;;5016666;28;20042;-78
2022/08/12 12:55:28;;;;;;;2.63;2.40;;;;;;;;;;5023107;28;20042;-78
2022/08/12 12:58:15;;;;;;;4.90;2.50;;;;;;;;;;5017290;28;20042;-77
2022/08/12 13:01:01;;;;;;;5.03;2.63;;;;;;;;;;5017279;28;20042;-77
2022/08/12 13:03:47;;;;;;;3.65;3.03;;;;;;;;;;5016807;28;20484;-78
2022/08/12 13:06:33;;;;;;;5.35;2.35;;;;;;;;;;5023652;28;20392;-74
2022/08/12 13:09:18;;;;;;;3.72;2.63;;;;;;;;;;5017171;28;20049;-78
2022/08/12 13:12:07;;;;;;;5.55;2.38;;;;;;;;;;5017138;28;20038;-77
2022/08/12 13:14:52;;;;;;;3.15;2.50;;;;;;;;;;5016752;28;20046;-77
2022/08/12 13:17:38;;;;;;;5.47;2.50;;;;;;;;;;5016411;28;20041;-75
2022/08/12 13:20:23;;;;;;;2.97;2.55;;;;;;;;;;5016450;28;20387;-76
2022/08/12 13:23:09;;;;;;;3.70;2.40;;;;;;;;;;5008605;28;20483;-78
2022/08/12 13:25:55;;;;;;;3.17;2.60;;;;;;;;;;5024713;28;20041;-77
2022/08/12 13:28:52;;;;;;;2.55;2.10;;;;;;;;;;5037899;28;20050;-75
2022/08/12 13:31:40;;;;;;;3.13;2.40;;;;;;;;;;5023124;28;20046;-78
2022/08/12 13:34:25;;;;;;;2.80;2.50;;;;;;;;;;5015842;28;20046;-76
2022/08/12 13:37:11;;;;;;;3.35;2.55;;;;;;;;;;5022799;28;20487;-76
2022/08/12 13:39:56;;;;;;;4.43;2.55;;;;;;;;;;5023022;28;20034;-77
2022/08/12 13:42:43;;;;;;;2.55;2.33;;;;;;;;;;5017067;28;20050;-75
2022/08/12 13:45:32;;;;;;;3.58;2.58;;;;;;;;;;5016043;28;20392;-77
2022/08/12 13:48:17;;;;;;;3.25;2.60;;;;;;;;;;5022637;28;20049;-78
2022/08/12 13:51:02;;;;;;;4.00;2.50;;;;;;;;;;5015788;28;20057;-77
2022/08/12 13:53:48;;;;;;;4.75;2.58;;;;;;;;;;5016436;28;20046;-78
2022/08/12 13:56:33;;;;;;;4.63;2.78;;;;;;;;;;5022530;28;20049;-74
2022/08/12 13:59:20;;;;;;;4.15;3.13;;;;;;;;;;5016307;28;20046;-75
2022/08/12 14:02:05;;;;;;;5.45;3.00;;;;;;;;;;5016164;28;20050;-78
2022/08/12 14:04:51;;;;;;;3.20;2.78;;;;;;;;;;5015631;28;20054;-77
2022/08/12 14:07:52;;;;;;;5.80;3.70;;;;;;;;;;5022626;28;20392;-77
2022/08/12 14:10:39;;;;;;;4.78;3.25;;;;;;;;;;5015454;28;20042;-77
2022/08/12 14:13:27;;;;;;;5.00;2.90;;;;;;;;;;5015458;28;20053;-76
2022/08/12 14:16:12;;;;;;;3.38;2.70;;;;;;;;;;5022434;28;20053;-74
2022/08/12 14:18:57;;;;;;;3.00;2.47;;;;;;;;;;5015573;28;20480;-78
2022/08/12 14:21:45;;;;;;;4.10;2.72;;;;;;;;;;5015198;28;20042;-79
2022/08/12 14:24:33;;;;;;;3.22;2.65;;;;;;;;;;5021126;28;20041;-79
2022/08/12 14:27:18;;;;;;;3.45;2.83;;;;;;;;;;5015828;28;20049;-79
2022/08/12 14:30:06;;;;;;;2.90;2.60;;;;;;;;;;5015848;28;20399;-78
2022/08/12 14:32:51;;;;;;;4.40;2.47;;;;;;;;;;5015830;28;20054;-78
2022/08/12 14:35:36;;;;;;;3.90;2.45;;;;;;;;;;5014872;28;20046;-79
2022/08/12 14:38:27;;;;;;;3.75;2.55;;;;;;;;;;5021469;28;20054;-82
2022/08/12 14:41:19;;;;;;;4.10;2.50;;;;;;;;;;5015056;28;20076;-81
2022/08/12 14:44:04;;;;;;;4.47;3.08;;;;;;;;;;5015000;28;20475;-80
2022/08/12 14:46:54;;;;;;;7.43;2.92;;;;;;;;;;5021510;28;20384;-77
2022/08/12 14:49:40;;;;;;;3.38;2.55;;;;;;;;;;5015378;28;20480;-76
2022/08/12 14:52:26;;;;;;;5.53;2.53;;;;;;;;;;5015122;28;20399;-81
2022/08/12 14:55:13;;;;;;;5.85;3.05;;;;;;;;;;5014618;28;20050;-79
2022/08/12 14:58:00;;;;;;;2.70;2.50;;;;;;;;;;5014887;28;20050;-79
2022/08/12 15:03:50;;;;;;;2.47;1.90;;;;;;;;;;5015016;28;20395;-79
2022/08/12 15:06:36;;;;;;;4.35;2.30;;;;;;;;;;5015101;28;20042;-82
2022/08/12 15:09:22;;;;;;;4.38;2.10;;;;;;;;;;5014522;28;20053;-83
2022/08/12 15:12:11;;;;;;;3.55;2.83;;;;;;;;;;5014477;28;20046;-83
2022/08/12 15:14:58;;;;;;;3.80;2.50;;;;;;;;;;5015006;28;20046;-82
2022/08/12 15:17:44;;;;;;;3.95;2.65;;;;;;;;;;5014996;28;20492;-80
2022/08/12 15:20:29;;;;;;;5.93;3.20;;;;;;;;;;5020914;28;20049;-79
2022/08/12 15:23:15;;;;;;;3.78;2.60;;;;;;;;;;5020550;28;20058;-77
2022/08/12 15:26:10;;;;;;;3.00;2.35;;;;;;;;;;5014227;28;20041;-77
2022/08/12 15:28:55;;;;;;;6.68;2.65;;;;;;;;;;5014293;28;20399;-81
2022/08/12 15:31:40;;;;;;;3.33;2.30;;;;;;;;;;5014200;28;20046;-81
2022/08/12 15:34:26;;;;;;;3.30;2.60;;;;;;;;;;5014412;28;20046;-83
2022/08/12 15:37:12;;;;;;;3.20;2.38;;;;;;;;;;5014683;28;20058;-83
2022/08/12 15:39:57;;;;;;;3.47;2.55;;;;;;;;;;5015273;28;20049;-77
2022/08/12 15:42:45;;;;;;;5.10;2.28;;;;;;;;;;5023140;28;20046;-78
2022/08/12 15:45:33;;;;;;;5.55;2.40;;;;;;;;;;5026571;28;20046;-78
2022/08/12 15:48:18;;;;;;;3.90;2.40;;;;;;;;;;5020447;28;20046;-78
2022/08/12 15:51:05;;;;;;;4.63;2.78;;;;;;;;;;5014224;28;20395;-78
2022/08/12 15:54:06;;;;;;;4.93;3.25;;;;;;;;;;5020144;28;20508;-79
2022/08/12 15:56:53;;;;;;;4.03;2.83;;;;;;;;;;5013808;28;20049;-80
2022/08/12 15:59:39;;;;;;;5.97;2.60;;;;;;;;;;5013903;28;20038;-78
2022/08/12 16:02:26;;;;;;;3.58;2.83;;;;;;;;;;5013639;28;20479;-79
2022/08/12 16:05:10;;;;;;;4.18;3.08;;;;;;;;;;5020089;28;20054;-79
2022/08/12 16:07:56;;;;;;;5.95;3.17;;;;;;;;;;5012895;28;20045;-79
2022/08/12 16:10:43;;;;;;;5.18;2.60;;;;;;;;;;5016920;28;20046;-80
2022/08/12 16:13:28;;;;;;;4.15;2.60;;;;;;;;;;5020340;28;20046;-80
2022/08/12 16:16:14;;;;;;;2.47;2.28;;;;;;;;;;5013760;28;20038;-83
2022/08/12 16:19:00;;;;;;;3.22;2.38;;;;;;;;;;5013509;28;20042;-82
2022/08/12 16:21:46;;;;;;;4.05;2.60;;;;;;;;;;5014227;28;20042;-80
2022/08/12 16:24:32;;;;;;;5.18;2.25;;;;;;;;;;5020437;28;20083;-80
2022/08/12 16:27:17;;;;;;;3.08;2.08;;;;;;;;;;5013387;28;20049;-80
2022/08/12 16:30:04;;;;;;;1.75;1.45;;;;;;;;;;5013723;28;20045;-82
2022/08/12 16:32:50;;;;;;;4.30;1.70;;;;;;;;;;5013787;28;20041;-82
2022/08/12 16:35:37;;;;;;;3.72;2.00;;;;;;;;;;5013360;28;20042;-80
2022/08/12 16:38:23;;;;;;;6.65;2.65;;;;;;;;;;5014809;28;20042;-80
2022/08/12 16:41:09;;;;;;;3.00;2.40;;;;;;;;;;5019812;28;20038;-82
2022/08/12 16:43:55;;;;;;;3.72;2.50;;;;;;;;;;5016704;28;20046;-81
2022/08/12 16:46:43;;;;;;;3.03;2.30;;;;;;;;;;5024599;28;20046;-81
2022/08/12 16:49:32;;;;;;;3.65;2.40;;;;;;;;;;5018579;28;20042;-80
2022/08/12 16:52:18;;;;;;;3.78;2.03;;;;;;;;;;5027485;28;20042;-85
2022/08/12 16:55:08;;;;;;;4.13;2.38;;;;;;;;;;5020482;28;20046;-83
2022/08/12 16:57:54;;;;;;;5.05;2.70;;;;;;;;;;5018806;28;20042;-83
2022/08/12 17:00:40;;;;;;;6.90;2.92;;;;;;;;;;5002883;28;20037;-83
2022/08/12 17:03:26;;;;;;;3.53;2.53;;;;;;;;;;5018298;28;20379;-83
2022/08/12 17:06:12;;;;;;;3.20;2.63;;;;;;;;;;4996818;28;20050;-82
2022/08/12 17:09:03;;;;;;;4.30;3.38;;;;;;;;;;5011290;28;20046;-82
2022/08/12 17:11:48;;;;;;;4.40;3.35;;;;;;;;;;5010799;28;20399;-82
2022/08/12 17:14:35;;;;;;;5.15;3.22;;;;;;;;;;5011693;28;20399;-85
2022/08/12 17:17:22;;;;;;;6.10;3.20;;;;;;;;;;5012582;28;20398;-84
2022/08/12 17:20:08;;;;;;;4.80;3.63;;;;;;;;;;5013361;28;20053;-83
2022/08/12 17:22:56;;;;;;;6.95;4.45;;;;;;;;;;5016734;28;20399;-83
2022/08/12 17:25:50;;;;;;;4.82;3.70;;;;;;;;;;5015335;28;20045;-81
2022/08/12 17:28:36;;;;;;;6.13;4.07;;;;;;;;;;5022112;28;20049;-84
2022/08/12 17:31:22;;;;;;;6.00;4.10;;;;;;;;;;5016311;28;20083;-81
2022/08/12 17:35:25;;;;;;;7.90;4.53;;;;;;;;;;5015846;28;20050;-81
2022/08/12 17:37:13;;;;;;;;;;;;;;;;;;5003832;28;20046;-80
2022/08/12 17:39:58;;;;;;;4.13;2.78;;;;;;;;;;5016290;28;20252;-79
2022/08/12 17:42:45;;;;;;;6.15;3.92;;;;;;;;;;5016234;28;20050;-83
2022/08/12 17:45:30;;;;;;;5.97;4.03;;;;;;;;;;5015776;28;20058;-82
2022/08/12 17:48:17;;;;;;;5.35;4.03;;;;;;;;;;5016372;28;20050;-82
2022/08/12 17:51:05;;;;;;;4.35;3.35;;;;;;;;;;5016386;28;20042;-82
2022/08/12 17:53:51;;;;;;;5.50;4.30;;;;;;;;;;5015857;28;20053;-82
2022/08/12 17:56:37;;;;;;;4.75;3.58;;;;;;;;;;5016580;28;20049;-80
2022/08/12 17:59:22;;;;;;;8.23;3.55;;;;;;;;;;5021607;28;20050;-80
2022/08/12 18:02:13;;;;;;;5.03;3.65;;;;;;;;;;5003288;28;20050;-80
2022/08/12 18:04:59;;;;;;;6.30;4.20;;;;;;;;;;5003161;28;20035;-80
2022/08/12 18:07:45;;;;;;;5.43;3.63;;;;;;;;;;4996039;28;20480;-81
2022/08/12 18:13:35;;;;;;;4.53;3.63;;;;;;;;;;4995281;28;20042;-79
2022/08/12 18:16:22;;;;;;;6.57;3.92;;;;;;;;;;4995266;28;20506;-83
2022/08/12 18:19:09;;;;;;;6.13;4.78;;;;;;;;;;4995147;28;20054;-81
2022/08/12 18:21:54;;;;;;;4.90;3.88;;;;;;;;;;4995503;28;20480;-82
2022/08/12 18:24:39;;;;;;;5.15;4.30;;;;;;;;;;4996105;28;20043;-81
2022/08/12 18:27:28;;;;;;;5.53;3.70;;;;;;;;;;4996027;28;20046;-81
2022/08/12 18:30:15;;;;;;;4.75;3.30;;;;;;;;;;5002449;28;20480;-84
2022/08/12 18:33:02;;;;;;;5.07;3.33;;;;;;;;;;5002562;28;20042;-82
2022/08/12 18:35:51;;;;;;;2.72;2.33;;;;;;;;;;4996469;28;20492;-81